sensor_id;sensor_type;location;lat;lon;timestamp;temperature;humidity
42683;DHT22;28293;50.930;3.464;2023-06-10T00:00:24;22.10;57.00
42683;DHT22;28293;50.930;3.464;2023-06-10T00:02:50;22.10;57.20
42683;DHT22;28293;50.930;3.464;2023-06-10T00:05:15;22.10;57.30
42683;DHT22;28293;50.930;3.464;2023-06-10T00:07:41;22.00;57.40
42683;DHT22;28293;50.930;3.464;2023-06-10T00:10:07;22.10;57.50
42683;DHT22;28293;50.930;3.464;2023-06-10T00:12:34;22.00;57.70
42683;DHT22;28293;50.930;3.464;2023-06-10T00:15:07;21.90;57.90
42683;DHT22;28293;50.930;3.464;2023-06-10T00:17:32;21.90;58.10
42683;DHT22;28293;50.930;3.464;2023-06-10T00:19:58;21.80;58.10
42683;DHT22;28293;50.930;3.464;2023-06-10T00:22:24;21.80;58.30
42683;DHT22;28293;50.930;3.464;2023-06-10T00:24:55;21.80;58.40
42683;DHT22;28293;50.930;3.464;2023-06-10T00:27:22;21.70;58.50
42683;DHT22;28293;50.930;3.464;2023-06-10T00:29:47;21.70;58.70
42683;DHT22;28293;50.930;3.464;2023-06-10T00:32:13;21.60;58.90
42683;DHT22;28293;50.930;3.464;2023-06-10T00:34:39;21.60;59.10
42683;DHT22;28293;50.930;3.464;2023-06-10T00:37:05;21.60;59.20
42683;DHT22;28293;50.930;3.464;2023-06-10T00:39:30;21.50;59.20
42683;DHT22;28293;50.930;3.464;2023-06-10T00:41:56;21.50;59.50
42683;DHT22;28293;50.930;3.464;2023-06-10T00:44:21;21.50;59.50
42683;DHT22;28293;50.930;3.464;2023-06-10T00:46:47;21.40;59.70
42683;DHT22;28293;50.930;3.464;2023-06-10T00:49:15;21.40;59.70
42683;DHT22;28293;50.930;3.464;2023-06-10T00:51:42;21.40;59.70
42683;DHT22;28293;50.930;3.464;2023-06-10T00:54:08;21.40;59.80
42683;DHT22;28293;50.930;3.464;2023-06-10T00:56:34;21.40;59.90
42683;DHT22;28293;50.930;3.464;2023-06-10T00:59:00;21.30;60.10
42683;DHT22;28293;50.930;3.464;2023-06-10T01:01:26;21.30;60.30
42683;DHT22;28293;50.930;3.464;2023-06-10T01:03:52;21.30;60.40
42683;DHT22;28293;50.930;3.464;2023-06-10T01:06:38;21.20;60.30
42683;DHT22;28293;50.930;3.464;2023-06-10T01:09:23;21.10;60.60
42683;DHT22;28293;50.930;3.464;2023-06-10T01:12:19;21.10;60.70
42683;DHT22;28293;50.930;3.464;2023-06-10T01:14:46;21.10;60.70
42683;DHT22;28293;50.930;3.464;2023-06-10T01:17:14;21.10;61.00
42683;DHT22;28293;50.930;3.464;2023-06-10T01:19:41;21.10;61.20
42683;DHT22;28293;50.930;3.464;2023-06-10T01:22:09;21.10;61.20
42683;DHT22;28293;50.930;3.464;2023-06-10T01:24:36;21.00;61.30
42683;DHT22;28293;50.930;3.464;2023-06-10T01:27:06;21.00;61.40
42683;DHT22;28293;50.930;3.464;2023-06-10T01:29:42;21.00;61.50
42683;DHT22;28293;50.930;3.464;2023-06-10T01:32:20;21.00;61.50
42683;DHT22;28293;50.930;3.464;2023-06-10T01:34:47;21.00;61.60
42683;DHT22;28293;50.930;3.464;2023-06-10T01:37:17;20.90;61.80
42683;DHT22;28293;50.930;3.464;2023-06-10T01:39:43;20.90;61.80
42683;DHT22;28293;50.930;3.464;2023-06-10T01:42:10;20.90;61.80
42683;DHT22;28293;50.930;3.464;2023-06-10T01:44:39;20.80;62.10
42683;DHT22;28293;50.930;3.464;2023-06-10T01:47:04;20.80;62.20
42683;DHT22;28293;50.930;3.464;2023-06-10T01:49:30;20.70;62.20
42683;DHT22;28293;50.930;3.464;2023-06-10T01:51:56;20.70;62.30
42683;DHT22;28293;50.930;3.464;2023-06-10T01:54:21;20.70;62.40
42683;DHT22;28293;50.930;3.464;2023-06-10T01:56:47;20.70;62.50
42683;DHT22;28293;50.930;3.464;2023-06-10T01:59:12;20.60;62.50
42683;DHT22;28293;50.930;3.464;2023-06-10T02:01:38;20.60;62.60
42683;DHT22;28293;50.930;3.464;2023-06-10T02:04:04;20.60;62.60
42683;DHT22;28293;50.930;3.464;2023-06-10T02:06:29;20.60;62.50
42683;DHT22;28293;50.930;3.464;2023-06-10T02:08:55;20.60;62.60
42683;DHT22;28293;50.930;3.464;2023-06-10T02:11:21;20.60;62.60
42683;DHT22;28293;50.930;3.464;2023-06-10T02:13:47;20.50;62.90
42683;DHT22;28293;50.930;3.464;2023-06-10T02:16:12;20.60;63.00
42683;DHT22;28293;50.930;3.464;2023-06-10T02:18:41;20.60;63.00
42683;DHT22;28293;50.930;3.464;2023-06-10T02:21:08;20.50;63.00
42683;DHT22;28293;50.930;3.464;2023-06-10T02:23:34;20.50;63.20
42683;DHT22;28293;50.930;3.464;2023-06-10T02:26:00;20.50;63.20
42683;DHT22;28293;50.930;3.464;2023-06-10T02:28:26;20.40;63.40
42683;DHT22;28293;50.930;3.464;2023-06-10T02:30:52;20.40;63.50
42683;DHT22;28293;50.930;3.464;2023-06-10T02:33:17;20.30;63.60
42683;DHT22;28293;50.930;3.464;2023-06-10T02:35:43;20.30;63.50
42683;DHT22;28293;50.930;3.464;2023-06-10T02:38:09;20.30;63.60
42683;DHT22;28293;50.930;3.464;2023-06-10T02:40:35;20.30;63.70
42683;DHT22;28293;50.930;3.464;2023-06-10T02:43:01;20.30;63.70
42683;DHT22;28293;50.930;3.464;2023-06-10T02:45:26;20.30;63.60
42683;DHT22;28293;50.930;3.464;2023-06-10T02:47:52;20.20;63.80
42683;DHT22;28293;50.930;3.464;2023-06-10T02:50:18;20.20;63.80
42683;DHT22;28293;50.930;3.464;2023-06-10T02:52:43;20.20;63.80
42683;DHT22;28293;50.930;3.464;2023-06-10T02:55:09;20.20;63.90
42683;DHT22;28293;50.930;3.464;2023-06-10T02:57:35;20.20;63.90
42683;DHT22;28293;50.930;3.464;2023-06-10T03:00:00;20.10;64.00
42683;DHT22;28293;50.930;3.464;2023-06-10T03:02:27;20.10;64.00
42683;DHT22;28293;50.930;3.464;2023-06-10T03:04:56;20.10;64.00
42683;DHT22;28293;50.930;3.464;2023-06-10T03:07:23;20.10;64.10
42683;DHT22;28293;50.930;3.464;2023-06-10T03:09:49;20.10;64.30
42683;DHT22;28293;50.930;3.464;2023-06-10T03:12:15;20.10;64.30
42683;DHT22;28293;50.930;3.464;2023-06-10T03:14:41;20.00;64.30
42683;DHT22;28293;50.930;3.464;2023-06-10T03:17:07;20.00;64.50
42683;DHT22;28293;50.930;3.464;2023-06-10T03:19:34;19.90;64.60
42683;DHT22;28293;50.930;3.464;2023-06-10T03:22:10;19.90;64.60
42683;DHT22;28293;50.930;3.464;2023-06-10T03:24:36;19.80;64.80
42683;DHT22;28293;50.930;3.464;2023-06-10T03:27:06;19.80;65.00
42683;DHT22;28293;50.930;3.464;2023-06-10T03:29:32;19.80;65.00
42683;DHT22;28293;50.930;3.464;2023-06-10T03:31:58;19.80;65.00
42683;DHT22;28293;50.930;3.464;2023-06-10T03:34:23;19.80;65.00
42683;DHT22;28293;50.930;3.464;2023-06-10T03:36:49;19.80;65.10
42683;DHT22;28293;50.930;3.464;2023-06-10T03:39:15;19.80;65.20
42683;DHT22;28293;50.930;3.464;2023-06-10T03:41:41;19.70;65.20
42683;DHT22;28293;50.930;3.464;2023-06-10T03:44:06;19.70;65.20
42683;DHT22;28293;50.930;3.464;2023-06-10T03:46:32;19.80;65.10
42683;DHT22;28293;50.930;3.464;2023-06-10T03:48:58;19.80;65.20
42683;DHT22;28293;50.930;3.464;2023-06-10T03:51:26;19.80;65.10
42683;DHT22;28293;50.930;3.464;2023-06-10T03:53:52;19.80;65.10
42683;DHT22;28293;50.930;3.464;2023-06-10T03:56:18;19.80;65.00
42683;DHT22;28293;50.930;3.464;2023-06-10T03:58:43;19.80;65.00
42683;DHT22;28293;50.930;3.464;2023-06-10T04:01:10;19.90;64.90
42683;DHT22;28293;50.930;3.464;2023-06-10T04:03:36;19.90;64.70
42683;DHT22;28293;50.930;3.464;2023-06-10T04:06:01;19.90;64.80
42683;DHT22;28293;50.930;3.464;2023-06-10T04:08:28;19.90;64.80
42683;DHT22;28293;50.930;3.464;2023-06-10T04:10:53;20.00;64.90
42683;DHT22;28293;50.930;3.464;2023-06-10T04:13:19;20.00;64.90
42683;DHT22;28293;50.930;3.464;2023-06-10T04:15:45;20.00;64.70
42683;DHT22;28293;50.930;3.464;2023-06-10T04:18:10;20.10;64.70
42683;DHT22;28293;50.930;3.464;2023-06-10T04:20:36;20.10;64.60
42683;DHT22;28293;50.930;3.464;2023-06-10T04:23:02;20.10;64.60
42683;DHT22;28293;50.930;3.464;2023-06-10T04:25:27;20.10;64.70
42683;DHT22;28293;50.930;3.464;2023-06-10T04:27:54;20.10;64.50
42683;DHT22;28293;50.930;3.464;2023-06-10T04:30:20;20.10;64.60
42683;DHT22;28293;50.930;3.464;2023-06-10T04:32:45;20.10;64.60
42683;DHT22;28293;50.930;3.464;2023-06-10T04:35:13;20.10;64.50
42683;DHT22;28293;50.930;3.464;2023-06-10T04:37:40;20.10;65.10
42683;DHT22;28293;50.930;3.464;2023-06-10T04:40:07;20.10;65.00
42683;DHT22;28293;50.930;3.464;2023-06-10T04:42:33;20.10;64.80
42683;DHT22;28293;50.930;3.464;2023-06-10T04:44:58;20.10;64.80
42683;DHT22;28293;50.930;3.464;2023-06-10T04:47:25;20.20;64.70
42683;DHT22;28293;50.930;3.464;2023-06-10T04:49:51;20.20;65.00
42683;DHT22;28293;50.930;3.464;2023-06-10T04:52:17;20.30;64.70
42683;DHT22;28293;50.930;3.464;2023-06-10T04:54:43;20.40;64.70
42683;DHT22;28293;50.930;3.464;2023-06-10T04:57:09;20.40;64.60
42683;DHT22;28293;50.930;3.464;2023-06-10T04:59:36;20.50;64.70
42683;DHT22;28293;50.930;3.464;2023-06-10T05:02:04;20.60;64.50
42683;DHT22;28293;50.930;3.464;2023-06-10T05:04:30;20.60;64.70
42683;DHT22;28293;50.930;3.464;2023-06-10T05:06:56;20.60;64.60
42683;DHT22;28293;50.930;3.464;2023-06-10T05:09:21;21.00;63.80
42683;DHT22;28293;50.930;3.464;2023-06-10T05:11:47;22.00;61.80
42683;DHT22;28293;50.930;3.464;2023-06-10T05:14:13;23.20;57.60
42683;DHT22;28293;50.930;3.464;2023-06-10T05:16:38;24.50;54.50
42683;DHT22;28293;50.930;3.464;2023-06-10T05:19:04;25.30;52.20
42683;DHT22;28293;50.930;3.464;2023-06-10T05:21:30;26.20;49.90
42683;DHT22;28293;50.930;3.464;2023-06-10T05:23:56;26.70;48.30
42683;DHT22;28293;50.930;3.464;2023-06-10T05:26:21;27.30;47.30
42683;DHT22;28293;50.930;3.464;2023-06-10T05:28:47;27.60;46.20
42683;DHT22;28293;50.930;3.464;2023-06-10T05:31:13;27.80;45.50
42683;DHT22;28293;50.930;3.464;2023-06-10T05:33:39;28.20;44.80
42683;DHT22;28293;50.930;3.464;2023-06-10T05:36:05;28.10;45.40
42683;DHT22;28293;50.930;3.464;2023-06-10T05:38:31;28.20;44.50
42683;DHT22;28293;50.930;3.464;2023-06-10T05:40:56;28.40;44.30
42683;DHT22;28293;50.930;3.464;2023-06-10T05:43:24;28.60;44.10
42683;DHT22;28293;50.930;3.464;2023-06-10T05:45:50;28.90;43.40
42683;DHT22;28293;50.930;3.464;2023-06-10T05:48:18;28.50;44.10
42683;DHT22;28293;50.930;3.464;2023-06-10T05:50:45;28.20;44.50
42683;DHT22;28293;50.930;3.464;2023-06-10T05:53:14;27.80;45.30
42683;DHT22;28293;50.930;3.464;2023-06-10T05:55:42;27.10;47.20
42683;DHT22;28293;50.930;3.464;2023-06-10T05:58:08;26.50;49.00
42683;DHT22;28293;50.930;3.464;2023-06-10T06:00:34;25.70;50.90
42683;DHT22;28293;50.930;3.464;2023-06-10T06:03:00;25.10;52.20
42683;DHT22;28293;50.930;3.464;2023-06-10T06:05:26;24.90;53.10
42683;DHT22;28293;50.930;3.464;2023-06-10T06:07:52;24.60;53.30
42683;DHT22;28293;50.930;3.464;2023-06-10T06:10:18;24.40;54.50
42683;DHT22;28293;50.930;3.464;2023-06-10T06:12:44;24.30;55.00
42683;DHT22;28293;50.930;3.464;2023-06-10T06:15:11;24.10;55.30
42683;DHT22;28293;50.930;3.464;2023-06-10T06:17:36;24.10;55.60
42683;DHT22;28293;50.930;3.464;2023-06-10T06:20:03;24.10;55.90
42683;DHT22;28293;50.930;3.464;2023-06-10T06:22:29;24.10;55.80
42683;DHT22;28293;50.930;3.464;2023-06-10T06:24:55;24.30;55.90
42683;DHT22;28293;50.930;3.464;2023-06-10T06:27:20;24.40;55.80
42683;DHT22;28293;50.930;3.464;2023-06-10T06:29:46;24.50;54.40
42683;DHT22;28293;50.930;3.464;2023-06-10T06:32:12;24.50;54.40
42683;DHT22;28293;50.930;3.464;2023-06-10T06:34:38;24.70;54.40
42683;DHT22;28293;50.930;3.464;2023-06-10T06:37:04;24.80;53.70
42683;DHT22;28293;50.930;3.464;2023-06-10T06:39:30;24.90;53.10
42683;DHT22;28293;50.930;3.464;2023-06-10T06:41:55;24.90;53.50
42683;DHT22;28293;50.930;3.464;2023-06-10T06:44:21;25.00;52.70
42683;DHT22;28293;50.930;3.464;2023-06-10T06:46:46;25.10;52.90
42683;DHT22;28293;50.930;3.464;2023-06-10T06:49:12;25.20;52.60
42683;DHT22;28293;50.930;3.464;2023-06-10T06:51:41;25.30;52.40
42683;DHT22;28293;50.930;3.464;2023-06-10T06:54:06;25.30;52.10
42683;DHT22;28293;50.930;3.464;2023-06-10T06:56:32;25.40;52.70
42683;DHT22;28293;50.930;3.464;2023-06-10T06:58:58;25.40;50.90
42683;DHT22;28293;50.930;3.464;2023-06-10T07:01:23;25.40;51.70
42683;DHT22;28293;50.930;3.464;2023-06-10T07:03:49;25.30;51.00
42683;DHT22;28293;50.930;3.464;2023-06-10T07:06:15;25.50;51.60
42683;DHT22;28293;50.930;3.464;2023-06-10T07:08:40;25.80;51.40
42683;DHT22;28293;50.930;3.464;2023-06-10T07:11:06;25.80;50.50
42683;DHT22;28293;50.930;3.464;2023-06-10T07:13:31;26.00;50.60
42683;DHT22;28293;50.930;3.464;2023-06-10T07:15:57;26.10;49.70
42683;DHT22;28293;50.930;3.464;2023-06-10T07:18:23;26.10;49.80
42683;DHT22;28293;50.930;3.464;2023-06-10T07:20:48;26.30;49.00
42683;DHT22;28293;50.930;3.464;2023-06-10T07:23:17;26.30;49.20
42683;DHT22;28293;50.930;3.464;2023-06-10T07:25:43;26.50;48.70
42683;DHT22;28293;50.930;3.464;2023-06-10T07:28:08;26.60;48.80
42683;DHT22;28293;50.930;3.464;2023-06-10T07:30:34;26.60;48.30
42683;DHT22;28293;50.930;3.464;2023-06-10T07:33:00;26.70;49.10
42683;DHT22;28293;50.930;3.464;2023-06-10T07:35:26;26.90;48.90
42683;DHT22;28293;50.930;3.464;2023-06-10T07:37:52;27.00;48.50
42683;DHT22;28293;50.930;3.464;2023-06-10T07:40:17;27.20;48.30
42683;DHT22;28293;50.930;3.464;2023-06-10T07:42:43;27.30;47.90
42683;DHT22;28293;50.930;3.464;2023-06-10T07:45:09;27.20;47.40
42683;DHT22;28293;50.930;3.464;2023-06-10T07:47:35;27.40;47.40
42683;DHT22;28293;50.930;3.464;2023-06-10T07:50:00;27.40;46.40
42683;DHT22;28293;50.930;3.464;2023-06-10T07:52:26;27.50;47.10
42683;DHT22;28293;50.930;3.464;2023-06-10T07:54:53;27.80;46.70
42683;DHT22;28293;50.930;3.464;2023-06-10T07:57:19;27.70;45.90
42683;DHT22;28293;50.930;3.464;2023-06-10T07:59:45;27.70;45.90
42683;DHT22;28293;50.930;3.464;2023-06-10T08:02:11;28.00;45.40
42683;DHT22;28293;50.930;3.464;2023-06-10T08:04:36;28.10;45.10
42683;DHT22;28293;50.930;3.464;2023-06-10T08:07:02;28.20;45.30
42683;DHT22;28293;50.930;3.464;2023-06-10T08:09:28;28.30;44.90
42683;DHT22;28293;50.930;3.464;2023-06-10T08:11:54;28.50;44.40
42683;DHT22;28293;50.930;3.464;2023-06-10T08:14:21;28.50;44.10
42683;DHT22;28293;50.930;3.464;2023-06-10T08:16:46;28.60;44.50
42683;DHT22;28293;50.930;3.464;2023-06-10T08:19:12;28.70;44.30
42683;DHT22;28293;50.930;3.464;2023-06-10T08:21:38;29.00;43.90
42683;DHT22;28293;50.930;3.464;2023-06-10T08:24:08;28.80;43.90
42683;DHT22;28293;50.930;3.464;2023-06-10T08:26:34;28.90;44.30
42683;DHT22;28293;50.930;3.464;2023-06-10T08:29:00;29.30;43.50
42683;DHT22;28293;50.930;3.464;2023-06-10T08:31:25;29.20;43.20
42683;DHT22;28293;50.930;3.464;2023-06-10T08:33:51;29.20;43.10
42683;DHT22;28293;50.930;3.464;2023-06-10T08:36:17;29.10;43.00
42683;DHT22;28293;50.930;3.464;2023-06-10T08:38:42;29.30;42.90
42683;DHT22;28293;50.930;3.464;2023-06-10T08:41:09;29.20;42.50
42683;DHT22;28293;50.930;3.464;2023-06-10T08:46:30;29.40;42.30
42683;DHT22;28293;50.930;3.464;2023-06-10T08:49:01;29.60;41.60
42683;DHT22;28293;50.930;3.464;2023-06-10T08:51:29;29.70;41.80
42683;DHT22;28293;50.930;3.464;2023-06-10T08:54:11;29.80;41.90
42683;DHT22;28293;50.930;3.464;2023-06-10T08:56:40;30.10;40.70
42683;DHT22;28293;50.930;3.464;2023-06-10T08:59:06;30.30;40.10
42683;DHT22;28293;50.930;3.464;2023-06-10T09:01:33;30.30;40.10
42683;DHT22;28293;50.930;3.464;2023-06-10T09:03:59;30.40;39.60
42683;DHT22;28293;50.930;3.464;2023-06-10T09:06:26;30.50;39.20
42683;DHT22;28293;50.930;3.464;2023-06-10T09:08:52;30.50;39.70
42683;DHT22;28293;50.930;3.464;2023-06-10T09:11:18;30.50;39.90
42683;DHT22;28293;50.930;3.464;2023-06-10T09:13:43;30.60;40.30
42683;DHT22;28293;50.930;3.464;2023-06-10T09:16:10;30.60;38.90
42683;DHT22;28293;50.930;3.464;2023-06-10T09:18:37;30.70;38.10
42683;DHT22;28293;50.930;3.464;2023-06-10T09:21:03;30.70;38.90
42683;DHT22;28293;50.930;3.464;2023-06-10T09:23:29;30.70;39.00
42683;DHT22;28293;50.930;3.464;2023-06-10T09:25:58;31.00;38.40
42683;DHT22;28293;50.930;3.464;2023-06-10T09:28:24;31.00;37.90
42683;DHT22;28293;50.930;3.464;2023-06-10T09:30:50;31.00;36.50
42683;DHT22;28293;50.930;3.464;2023-06-10T09:33:26;30.80;38.30
42683;DHT22;28293;50.930;3.464;2023-06-10T09:35:52;31.00;37.40
42683;DHT22;28293;50.930;3.464;2023-06-10T09:38:22;31.00;37.70
42683;DHT22;28293;50.930;3.464;2023-06-10T09:40:49;31.10;37.20
42683;DHT22;28293;50.930;3.464;2023-06-10T09:43:15;31.10;37.10
42683;DHT22;28293;50.930;3.464;2023-06-10T09:45:41;31.30;36.50
42683;DHT22;28293;50.930;3.464;2023-06-10T09:48:08;31.30;36.30
42683;DHT22;28293;50.930;3.464;2023-06-10T09:50:34;31.40;36.70
42683;DHT22;28293;50.930;3.464;2023-06-10T09:53:03;31.40;34.40
42683;DHT22;28293;50.930;3.464;2023-06-10T09:55:33;31.70;33.70
42683;DHT22;28293;50.930;3.464;2023-06-10T09:57:59;31.40;34.50
42683;DHT22;28293;50.930;3.464;2023-06-10T10:00:25;31.50;34.60
42683;DHT22;28293;50.930;3.464;2023-06-10T10:02:53;31.70;33.70
42683;DHT22;28293;50.930;3.464;2023-06-10T10:05:21;32.00;34.40
42683;DHT22;28293;50.930;3.464;2023-06-10T10:07:47;32.00;33.80
42683;DHT22;28293;50.930;3.464;2023-06-10T10:10:14;32.20;33.90
42683;DHT22;28293;50.930;3.464;2023-06-10T10:12:41;32.10;33.60
42683;DHT22;28293;50.930;3.464;2023-06-10T10:15:09;32.20;33.60
42683;DHT22;28293;50.930;3.464;2023-06-10T10:20:29;32.00;33.90
42683;DHT22;28293;50.930;3.464;2023-06-10T10:22:57;32.10;34.60
42683;DHT22;28293;50.930;3.464;2023-06-10T10:25:28;32.40;33.10
42683;DHT22;28293;50.930;3.464;2023-06-10T10:28:07;32.30;33.50
42683;DHT22;28293;50.930;3.464;2023-06-10T10:30:40;32.30;34.20
42683;DHT22;28293;50.930;3.464;2023-06-10T10:33:33;32.20;33.50
42683;DHT22;28293;50.930;3.464;2023-06-10T10:36:02;32.50;33.50
42683;DHT22;28293;50.930;3.464;2023-06-10T10:38:28;32.40;32.70
42683;DHT22;28293;50.930;3.464;2023-06-10T10:40:55;32.40;32.40
42683;DHT22;28293;50.930;3.464;2023-06-10T10:43:25;32.40;32.20
42683;DHT22;28293;50.930;3.464;2023-06-10T10:46:12;32.40;33.10
42683;DHT22;28293;50.930;3.464;2023-06-10T10:48:38;32.30;32.60
42683;DHT22;28293;50.930;3.464;2023-06-10T10:51:06;32.50;32.70
42683;DHT22;28293;50.930;3.464;2023-06-10T10:53:32;32.80;32.60
42683;DHT22;28293;50.930;3.464;2023-06-10T10:56:15;33.20;32.10
42683;DHT22;28293;50.930;3.464;2023-06-10T10:59:03;33.00;32.50
42683;DHT22;28293;50.930;3.464;2023-06-10T11:01:40;33.00;32.50
42683;DHT22;28293;50.930;3.464;2023-06-10T11:04:08;33.00;32.00
42683;DHT22;28293;50.930;3.464;2023-06-10T11:06:35;32.60;31.30
42683;DHT22;28293;50.930;3.464;2023-06-10T11:09:00;32.60;31.90
42683;DHT22;28293;50.930;3.464;2023-06-10T11:11:27;33.00;31.90
42683;DHT22;28293;50.930;3.464;2023-06-10T11:16:42;33.10;31.30
42683;DHT22;28293;50.930;3.464;2023-06-10T11:19:09;33.20;30.10
42683;DHT22;28293;50.930;3.464;2023-06-10T11:21:59;33.00;30.30
42683;DHT22;28293;50.930;3.464;2023-06-10T11:24:26;33.30;29.90
42683;DHT22;28293;50.930;3.464;2023-06-10T11:26:52;33.10;30.00
42683;DHT22;28293;50.930;3.464;2023-06-10T11:29:17;33.40;30.30
42683;DHT22;28293;50.930;3.464;2023-06-10T11:31:48;33.30;30.20
42683;DHT22;28293;50.930;3.464;2023-06-10T11:34:15;33.30;30.20
42683;DHT22;28293;50.930;3.464;2023-06-10T11:36:46;32.80;29.60
42683;DHT22;28293;50.930;3.464;2023-06-10T11:39:12;32.70;30.10
42683;DHT22;28293;50.930;3.464;2023-06-10T11:41:39;32.80;30.90
42683;DHT22;28293;50.930;3.464;2023-06-10T11:44:12;32.80;30.20
42683;DHT22;28293;50.930;3.464;2023-06-10T11:46:38;32.90;31.10
42683;DHT22;28293;50.930;3.464;2023-06-10T11:49:05;33.00;30.20
42683;DHT22;28293;50.930;3.464;2023-06-10T11:51:38;33.10;30.00
42683;DHT22;28293;50.930;3.464;2023-06-10T11:54:06;33.40;29.20
42683;DHT22;28293;50.930;3.464;2023-06-10T11:56:34;33.00;30.10
42683;DHT22;28293;50.930;3.464;2023-06-10T11:59:06;32.90;29.60
42683;DHT22;28293;50.930;3.464;2023-06-10T12:01:44;32.90;29.20
42683;DHT22;28293;50.930;3.464;2023-06-10T12:04:14;32.90;29.30
42683;DHT22;28293;50.930;3.464;2023-06-10T12:11:40;33.70;29.00
42683;DHT22;28293;50.930;3.464;2023-06-10T12:14:05;33.50;29.00
42683;DHT22;28293;50.930;3.464;2023-06-10T12:16:31;33.50;29.00
42683;DHT22;28293;50.930;3.464;2023-06-10T12:19:04;33.90;28.40
42683;DHT22;28293;50.930;3.464;2023-06-10T12:21:32;34.00;28.20
42683;DHT22;28293;50.930;3.464;2023-06-10T12:26:41;33.40;28.90
42683;DHT22;28293;50.930;3.464;2023-06-10T12:29:20;33.20;29.40
42683;DHT22;28293;50.930;3.464;2023-06-10T12:31:58;33.50;29.20
42683;DHT22;28293;50.930;3.464;2023-06-10T12:34:34;33.50;28.40
42683;DHT22;28293;50.930;3.464;2023-06-10T12:37:01;33.20;28.80
42683;DHT22;28293;50.930;3.464;2023-06-10T12:39:30;33.40;28.90
42683;DHT22;28293;50.930;3.464;2023-06-10T12:41:56;33.60;28.00
42683;DHT22;28293;50.930;3.464;2023-06-10T12:44:32;33.80;28.60
42683;DHT22;28293;50.930;3.464;2023-06-10T12:46:58;33.40;28.60
42683;DHT22;28293;50.930;3.464;2023-06-10T12:49:24;33.60;27.70
42683;DHT22;28293;50.930;3.464;2023-06-10T12:51:50;33.50;27.70
42683;DHT22;28293;50.930;3.464;2023-06-10T12:54:16;33.20;28.60
42683;DHT22;28293;50.930;3.464;2023-06-10T12:56:41;33.70;28.40
42683;DHT22;28293;50.930;3.464;2023-06-10T12:59:07;33.90;28.10
42683;DHT22;28293;50.930;3.464;2023-06-10T13:01:32;33.90;27.40
42683;DHT22;28293;50.930;3.464;2023-06-10T13:03:59;33.70;28.00
42683;DHT22;28293;50.930;3.464;2023-06-10T13:06:25;33.50;27.80
42683;DHT22;28293;50.930;3.464;2023-06-10T13:08:51;33.30;28.30
42683;DHT22;28293;50.930;3.464;2023-06-10T13:11:16;33.60;28.10
42683;DHT22;28293;50.930;3.464;2023-06-10T13:13:42;33.80;27.90
42683;DHT22;28293;50.930;3.464;2023-06-10T13:16:08;33.90;27.30
42683;DHT22;28293;50.930;3.464;2023-06-10T13:18:34;34.20;27.70
42683;DHT22;28293;50.930;3.464;2023-06-10T13:21:03;34.50;27.60
42683;DHT22;28293;50.930;3.464;2023-06-10T13:23:29;33.70;27.60
42683;DHT22;28293;50.930;3.464;2023-06-10T13:25:56;33.10;28.70
42683;DHT22;28293;50.930;3.464;2023-06-10T13:28:22;33.10;28.30
42683;DHT22;28293;50.930;3.464;2023-06-10T13:30:48;33.40;27.70
42683;DHT22;28293;50.930;3.464;2023-06-10T13:33:14;33.50;27.30
42683;DHT22;28293;50.930;3.464;2023-06-10T13:35:40;33.50;28.30
42683;DHT22;28293;50.930;3.464;2023-06-10T13:38:06;33.70;27.70
42683;DHT22;28293;50.930;3.464;2023-06-10T13:40:32;34.00;28.10
42683;DHT22;28293;50.930;3.464;2023-06-10T13:42:58;33.70;28.10
42683;DHT22;28293;50.930;3.464;2023-06-10T13:45:24;33.50;28.30
42683;DHT22;28293;50.930;3.464;2023-06-10T13:47:50;33.80;27.70
42683;DHT22;28293;50.930;3.464;2023-06-10T13:50:16;33.70;28.00
42683;DHT22;28293;50.930;3.464;2023-06-10T13:52:42;33.90;27.70
42683;DHT22;28293;50.930;3.464;2023-06-10T13:55:08;33.80;27.50
42683;DHT22;28293;50.930;3.464;2023-06-10T13:57:34;33.60;28.40
42683;DHT22;28293;50.930;3.464;2023-06-10T13:59:59;33.10;29.20
42683;DHT22;28293;50.930;3.464;2023-06-10T14:02:25;32.80;29.00
42683;DHT22;28293;50.930;3.464;2023-06-10T14:04:51;32.80;28.70
42683;DHT22;28293;50.930;3.464;2023-06-10T14:07:16;32.90;28.50
42683;DHT22;28293;50.930;3.464;2023-06-10T14:09:42;33.10;28.80
42683;DHT22;28293;50.930;3.464;2023-06-10T14:12:09;33.30;29.00
42683;DHT22;28293;50.930;3.464;2023-06-10T14:14:34;33.60;28.70
42683;DHT22;28293;50.930;3.464;2023-06-10T14:17:01;33.90;27.50
42683;DHT22;28293;50.930;3.464;2023-06-10T14:19:28;33.80;27.50
42683;DHT22;28293;50.930;3.464;2023-06-10T14:21:54;34.20;27.70
42683;DHT22;28293;50.930;3.464;2023-06-10T14:24:21;34.10;27.60
42683;DHT22;28293;50.930;3.464;2023-06-10T14:26:46;34.20;27.60
42683;DHT22;28293;50.930;3.464;2023-06-10T14:29:12;34.40;27.60
42683;DHT22;28293;50.930;3.464;2023-06-10T14:31:42;34.00;27.60
42683;DHT22;28293;50.930;3.464;2023-06-10T14:34:08;33.80;27.20
42683;DHT22;28293;50.930;3.464;2023-06-10T14:36:34;33.60;27.40
42683;DHT22;28293;50.930;3.464;2023-06-10T14:39:00;33.70;28.00
42683;DHT22;28293;50.930;3.464;2023-06-10T14:41:26;34.00;27.80
42683;DHT22;28293;50.930;3.464;2023-06-10T14:43:52;34.10;27.90
42683;DHT22;28293;50.930;3.464;2023-06-10T14:46:18;34.30;28.20
42683;DHT22;28293;50.930;3.464;2023-06-10T14:48:46;34.40;28.20
42683;DHT22;28293;50.930;3.464;2023-06-10T14:51:12;34.20;27.10
42683;DHT22;28293;50.930;3.464;2023-06-10T14:53:37;33.70;27.90
42683;DHT22;28293;50.930;3.464;2023-06-10T14:56:04;33.60;28.40
42683;DHT22;28293;50.930;3.464;2023-06-10T14:58:29;33.80;28.10
42683;DHT22;28293;50.930;3.464;2023-06-10T15:00:55;33.70;27.50
42683;DHT22;28293;50.930;3.464;2023-06-10T15:03:21;33.80;28.40
42683;DHT22;28293;50.930;3.464;2023-06-10T15:05:46;33.80;27.30
42683;DHT22;28293;50.930;3.464;2023-06-10T15:08:12;33.90;28.20
42683;DHT22;28293;50.930;3.464;2023-06-10T15:10:38;34.10;27.70
42683;DHT22;28293;50.930;3.464;2023-06-10T15:13:03;34.20;28.40
42683;DHT22;28293;50.930;3.464;2023-06-10T15:15:29;34.30;27.90
42683;DHT22;28293;50.930;3.464;2023-06-10T15:17:55;34.50;27.70
42683;DHT22;28293;50.930;3.464;2023-06-10T15:20:21;34.70;27.40
42683;DHT22;28293;50.930;3.464;2023-06-10T15:22:46;34.70;27.00
42683;DHT22;28293;50.930;3.464;2023-06-10T15:25:12;34.40;28.10
42683;DHT22;28293;50.930;3.464;2023-06-10T15:27:38;34.20;28.00
42683;DHT22;28293;50.930;3.464;2023-06-10T15:30:04;34.40;28.10
42683;DHT22;28293;50.930;3.464;2023-06-10T15:32:30;34.30;27.50
42683;DHT22;28293;50.930;3.464;2023-06-10T15:34:56;34.30;27.90
42683;DHT22;28293;50.930;3.464;2023-06-10T15:37:22;34.60;28.40
42683;DHT22;28293;50.930;3.464;2023-06-10T15:39:47;34.70;27.80
42683;DHT22;28293;50.930;3.464;2023-06-10T15:42:13;34.90;27.90
42683;DHT22;28293;50.930;3.464;2023-06-10T15:44:39;34.70;28.30